createdAt,value
2022-08-05T00:02:20.335Z,100872.09
2022-08-05T00:04:47.654Z,100878.44
2022-08-05T00:07:58.834Z,100872.09
2022-08-05T00:10:10.677Z,100871.25
2022-08-05T00:12:56.520Z,100874.81
2022-08-05T00:15:55.109Z,100873.00
2022-08-05T00:18:21.458Z,100865.66
2022-08-05T00:20:49.184Z,100872.09
2022-08-05T00:23:16.403Z,100870.06
2022-08-05T00:25:45.713Z,100868.38
2022-08-05T00:28:13.631Z,100876.56
2022-08-05T00:30:44.203Z,100873.84
2022-08-05T00:33:15.351Z,100869.22
2022-08-05T00:36:16.565Z,100869.22
2022-08-05T00:38:45.949Z,100866.66
2022-08-05T00:41:13.261Z,100862.94
2022-08-05T00:43:47.310Z,100869.22
2022-08-05T00:46:16.929Z,100864.63
2022-08-05T00:49:04.386Z,100862.94
2022-08-05T00:51:51.999Z,100862.94
2022-08-05T00:54:19.436Z,100864.63
2022-08-05T00:56:51.398Z,100858.31
2022-08-05T00:59:18.955Z,100859.16
2022-08-05T01:01:48.560Z,100859.16
2022-08-05T01:04:19.900Z,100861.91
2022-08-05T01:06:51.732Z,100860.00
2022-08-05T01:09:19.897Z,100854.56
2022-08-05T01:11:49.677Z,100857.28
2022-08-05T01:14:28.440Z,100849.09
2022-08-05T01:17:02.046Z,100848.25
2022-08-05T01:20:00.948Z,100846.38
2022-08-05T01:22:41.550Z,100842.81
2022-08-05T01:25:14.846Z,100848.25
2022-08-05T01:27:55.309Z,100849.09
2022-08-05T01:30:34.223Z,100848.25
2022-08-05T01:33:08.219Z,100851.00
2022-08-05T01:35:52.194Z,100842.81
2022-08-05T01:38:27.496Z,100837.38
2022-08-05T01:40:58.790Z,100841.78
2022-08-05T01:43:28.044Z,100844.50
2022-08-05T01:45:56.559Z,100843.66
2022-08-05T01:48:25.181Z,100844.50
2022-08-05T01:50:52.601Z,100843.66
2022-08-05T01:53:55.139Z,100844.50
2022-08-05T01:56:09.512Z,100837.38
2022-08-05T01:58:44.711Z,100843.66
2022-08-05T02:01:24.569Z,100838.19
2022-08-05T02:03:53.649Z,100843.66
2022-08-05T02:06:37.121Z,100844.50
2022-08-05T02:09:05.885Z,100849.09
2022-08-05T02:11:42.098Z,100852.66
2022-08-05T02:14:12.926Z,100843.66
2022-08-05T02:16:53.102Z,100845.53
2022-08-05T02:19:23.488Z,100842.81
2022-08-05T02:22:02.237Z,100848.25
2022-08-05T02:24:34.118Z,100848.25
2022-08-05T02:27:09.137Z,100849.09
2022-08-05T02:29:58.757Z,100844.50
2022-08-05T02:32:30.970Z,100853.72
2022-08-05T02:35:09.601Z,100851.84
2022-08-05T02:37:41.567Z,100848.25
2022-08-05T02:40:09.967Z,100845.53
2022-08-05T02:42:37.793Z,100844.50
2022-08-05T02:45:05.723Z,100848.06
2022-08-05T02:48:07.514Z,100842.81
2022-08-05T02:50:23.113Z,100840.09
2022-08-05T02:52:51.031Z,100835.47
2022-08-05T02:55:54.984Z,100835.47
2022-08-05T02:58:12.294Z,100839.03
2022-08-05T03:00:41.152Z,100834.44
2022-08-05T03:03:16.614Z,100837.38
2022-08-05T03:06:53.647Z,100837.38
2022-08-05T03:08:31.165Z,100840.94
2022-08-05T03:11:53.436Z,100844.50
2022-08-05T03:13:51.077Z,100830.88
2022-08-05T03:16:29.770Z,100837.38
2022-08-05T03:18:59.639Z,100831.91
2022-08-05T03:21:28.844Z,100841.78
2022-08-05T03:24:00.619Z,100836.31
2022-08-05T03:26:31.769Z,100826.47
2022-08-05T03:28:59.940Z,100839.03
2022-08-05T03:31:56.759Z,100833.59
2022-08-05T03:34:15.209Z,100833.59
2022-08-05T03:36:42.689Z,100833.59
2022-08-05T03:39:13.123Z,100832.75
2022-08-05T03:41:47.461Z,100839.03
2022-08-05T03:44:20.208Z,100834.44
2022-08-05T03:46:47.368Z,100827.31
2022-08-05T03:49:15.771Z,100830.03
2022-08-05T03:52:37.528Z,100827.31
2022-08-05T03:55:54.209Z,100832.75
2022-08-05T03:57:42.569Z,100830.88
2022-08-05T04:00:15.872Z,100833.78
2022-08-05T04:02:57.777Z,100833.59
2022-08-05T04:05:34.680Z,100831.91
2022-08-05T04:08:03.519Z,100839.03
2022-08-05T04:10:37.987Z,100839.03
2022-08-05T04:13:06.355Z,100835.47
2022-08-05T04:15:35.921Z,100834.63
2022-08-05T04:18:07.060Z,100836.31
2022-08-05T04:20:35.060Z,100837.38
2022-08-05T04:23:02.285Z,100838.19
2022-08-05T04:25:56.673Z,100843.66
2022-08-05T04:28:18.740Z,100844.50
2022-08-05T04:30:46.145Z,100839.25
2022-08-05T04:33:15.602Z,100845.53
2022-08-05T04:36:15.683Z,100851.84
2022-08-05T04:38:39.796Z,100849.94
2022-08-05T04:41:09.618Z,100851.84
2022-08-05T04:43:37.905Z,100852.66
2022-08-05T04:46:13.611Z,100844.50
2022-08-05T04:48:57.958Z,100854.56
2022-08-05T04:51:25.970Z,100860.00
2022-08-05T04:53:57.782Z,100861.91
2022-08-05T04:56:34.929Z,100851.00
2022-08-05T04:59:21.544Z,100854.56
2022-08-05T05:02:35.503Z,100855.41
2022-08-05T05:04:38.184Z,100851.84
2022-08-05T05:07:09.556Z,100856.44
2022-08-05T05:09:37.228Z,100855.59
2022-08-05T05:12:04.927Z,100862.72
2022-08-05T05:14:33.376Z,100857.28
2022-08-05T05:17:07.278Z,100860.00
2022-08-05T05:19:36.514Z,100860.00
2022-08-05T05:22:23.571Z,100853.72
2022-08-05T05:24:57.373Z,100855.59
2022-08-05T05:27:41.323Z,100859.16
2022-08-05T05:30:15.465Z,100853.72
2022-08-05T05:32:56.885Z,100859.16
2022-08-05T05:35:27.357Z,100855.41
2022-08-05T05:38:00.380Z,100856.44
2022-08-05T05:40:30.036Z,100855.59
2022-08-05T05:42:59.859Z,100853.72
2022-08-05T05:45:29.500Z,100840.09
2022-08-05T05:48:06.075Z,100851.00
2022-08-05T05:50:44.095Z,100848.25
2022-08-05T05:53:21.588Z,100857.28
2022-08-05T05:55:51.395Z,100859.16
2022-08-05T05:58:30.387Z,100862.72
2022-08-05T06:01:02.184Z,100856.44
2022-08-05T06:04:00.816Z,100862.72
2022-08-05T06:06:33.228Z,100854.56
2022-08-05T06:09:03.256Z,100859.16
2022-08-05T06:11:31.763Z,100859.16
2022-08-05T06:14:00.341Z,100861.91
2022-08-05T06:16:36.593Z,100865.47
2022-08-05T06:19:05.788Z,100870.06
2022-08-05T06:21:36.971Z,100866.28
2022-08-05T06:24:07.723Z,100870.69
2022-08-05T06:26:38.676Z,100871.75
2022-08-05T06:29:06.991Z,100877.19
2022-08-05T06:31:53.305Z,100867.34
2022-08-05T06:34:20.420Z,100870.91
2022-08-05T06:36:57.257Z,100870.06
2022-08-05T06:39:27.147Z,100869.03
2022-08-05T06:41:59.216Z,100871.75
2022-08-05T06:44:26.915Z,100870.06
2022-08-05T06:46:54.591Z,100873.63
2022-08-05T06:50:01.475Z,100879.91
2022-08-05T06:52:38.083Z,100877.19
2022-08-05T06:54:56.017Z,100871.75
2022-08-05T06:57:58.098Z,100870.06
2022-08-05T07:00:10.732Z,100872.78
2022-08-05T07:02:46.393Z,100878.25
2022-08-05T07:05:15.280Z,100876.34
2022-08-05T07:07:49.044Z,100874.47
2022-08-05T07:10:16.639Z,100875.53
2022-08-05T07:13:02.711Z,100880.13
2022-08-05T07:16:01.748Z,100877.19
2022-08-05T07:18:32.044Z,100879.91
2022-08-05T07:21:05.478Z,100882.66
2022-08-05T07:23:32.875Z,100881.59
2022-08-05T07:26:00.879Z,100877.19
2022-08-05T07:28:29.164Z,100876.34
2022-08-05T07:30:56.703Z,100867.13
2022-08-05T07:33:36.904Z,100871.75
2022-08-05T07:36:20.391Z,100873.44
2022-08-05T07:38:48.940Z,100876.16
2022-08-05T07:42:13.011Z,100864.41
2022-08-05T07:44:06.001Z,100866.28
2022-08-05T07:46:41.793Z,100860.84
2022-08-05T07:49:15.486Z,100865.25
2022-08-05T07:51:53.320Z,100863.41
2022-08-05T07:54:31.599Z,100857.06
2022-08-05T07:57:22.437Z,100860.66
2022-08-05T07:59:49.773Z,100863.41
2022-08-05T08:02:18.027Z,100867.97
2022-08-05T08:04:46.773Z,100863.41
2022-08-05T08:07:15.024Z,100863.41
2022-08-05T08:09:43.542Z,100869.69
2022-08-05T08:12:30.561Z,100866.97
2022-08-05T08:15:02.380Z,100865.06
2022-08-05T08:17:30.212Z,100867.81
2022-08-05T08:20:10.828Z,100869.47
2022-08-05T08:22:50.570Z,100869.69
2022-08-05T08:25:18.270Z,100863.19
2022-08-05T08:27:54.743Z,100865.06
2022-08-05T08:30:32.851Z,100864.03
2022-08-05T08:33:09.248Z,100866.75
2022-08-05T08:35:53.028Z,100864.88
2022-08-05T08:38:32.224Z,100850.41
2022-08-05T08:41:05.772Z,100856.69
2022-08-05T08:45:22.447Z,100855.00
2022-08-05T08:46:22.058Z,100853.97
2022-08-05T08:49:06.155Z,100844.94
2022-08-05T08:52:03.670Z,100850.19
2022-08-05T08:54:27.329Z,100839.28
2022-08-05T08:56:56.429Z,100848.50
2022-08-05T08:59:27.727Z,100842.00
2022-08-05T09:02:02.046Z,100849.34
2022-08-05T09:04:30.281Z,100840.16
2022-08-05T09:06:58.334Z,100841.19
2022-08-05T09:09:34.885Z,100835.72
2022-08-05T09:12:20.204Z,100844.56
2022-08-05T09:14:57.114Z,100842.00
2022-08-05T09:17:42.386Z,100844.75
2022-08-05T09:20:11.225Z,100841.84
2022-08-05T09:23:04.845Z,100844.56
2022-08-05T09:26:01.063Z,100841.84
2022-08-05T09:28:24.510Z,100838.28
2022-08-05T09:31:43.136Z,100843.72
2022-08-05T09:33:59.484Z,100835.53
2022-08-05T09:36:59.906Z,100834.50
2022-08-05T09:39:41.550Z,100835.34
2022-08-05T09:42:23.532Z,100829.06
2022-08-05T09:44:56.607Z,100835.34
2022-08-05T09:47:25.695Z,100818.97
2022-08-05T09:50:02.309Z,100823.38
2022-08-05T09:52:34.063Z,100819.81
2022-08-05T09:55:55.476Z,100818.97
2022-08-05T09:57:49.838Z,100816.03
2022-08-05T10:00:24.709Z,100811.66
2022-08-05T10:02:58.706Z,100806.19
2022-08-05T10:05:32.851Z,100804.31
2022-08-05T10:08:35.740Z,100803.47
2022-08-05T10:10:53.957Z,100804.31
2022-08-05T10:13:31.579Z,100802.41
2022-08-05T10:16:31.088Z,100808.75
2022-08-05T10:19:00.009Z,100794.25
2022-08-05T10:21:35.204Z,100795.94
2022-08-05T10:24:10.868Z,100789.66
2022-08-05T10:26:51.257Z,100790.50
2022-08-05T10:30:05.801Z,100777.88
2022-08-05T10:32:54.653Z,100785.06
2022-08-05T10:35:00.960Z,100779.59
2022-08-05T10:37:44.505Z,100781.47
2022-08-05T10:40:27.970Z,100776.03
2022-08-05T10:42:58.709Z,100781.28
2022-08-05T10:45:40.473Z,100771.41
2022-08-05T10:48:31.005Z,100773.09
2022-08-05T10:51:06.340Z,100771.22
2022-08-05T10:53:55.796Z,100769.53
2022-08-05T10:56:27.028Z,100770.38
2022-08-05T10:58:54.555Z,100770.38
2022-08-05T11:01:55.496Z,100771.22
2022-08-05T11:04:21.595Z,100764.91
2022-08-05T11:06:58.017Z,100766.59
2022-08-05T11:09:39.475Z,100763.88
2022-08-05T11:12:32.258Z,100760.31
2022-08-05T11:15:19.574Z,100759.47
2022-08-05T11:17:57.268Z,100761.13
2022-08-05T11:20:43.772Z,100757.38
2022-08-05T11:23:33.255Z,100761.97
2022-08-05T11:26:04.943Z,100758.41
2022-08-05T11:28:35.861Z,100751.06
2022-08-05T11:31:06.565Z,100749.19
2022-08-05T11:33:46.410Z,100743.75
2022-08-05T11:36:34.420Z,100745.63
2022-08-05T11:39:04.534Z,100751.91
2022-08-05T11:41:54.656Z,100741.88
2022-08-05T11:44:40.817Z,100738.28
2022-08-05T11:47:11.210Z,100724.66
2022-08-05T11:49:43.246Z,100736.44
2022-08-05T11:52:23.422Z,100740.00
2022-08-05T11:54:58.182Z,100736.44
2022-08-05T11:57:29.563Z,100737.28
2022-08-05T11:59:58.341Z,100727.19
2022-08-05T12:02:31.437Z,100725.31
2022-08-05T12:05:00.884Z,100727.19
2022-08-05T12:08:07.462Z,100733.50
2022-08-05T12:10:22.985Z,100719.03
2022-08-05T12:12:59.578Z,100728.88
2022-08-05T12:15:38.449Z,100724.47
2022-08-05T12:18:10.747Z,100725.31
2022-08-05T12:20:38.826Z,100727.19
2022-08-05T12:23:09.890Z,100727.19
2022-08-05T12:25:50.200Z,100719.88
2022-08-05T12:28:32.597Z,100716.09
2022-08-05T12:31:02.245Z,100717.13
2022-08-05T12:33:36.729Z,100715.25
2022-08-05T12:36:07.010Z,100707.06
2022-08-05T12:38:41.868Z,100716.09
2022-08-05T12:41:13.218Z,100702.47
2022-08-05T12:43:51.580Z,100703.28
2022-08-05T12:46:29.472Z,100688.81
2022-08-05T12:49:01.609Z,100688.81
2022-08-05T12:52:13.788Z,100691.56
2022-08-05T12:54:35.675Z,100683.38
2022-08-05T12:57:09.439Z,100687.78
2022-08-05T13:01:58.319Z,100676.88
2022-08-05T13:02:37.182Z,100676.03
2022-08-05T13:05:07.289Z,100676.03
2022-08-05T13:10:22.015Z,100677.75
2022-08-05T13:12:57.730Z,100671.41
2022-08-05T13:15:42.185Z,100665.97
2022-08-05T13:18:20.849Z,100669.56
2022-08-05T13:20:49.876Z,100665.78
2022-08-05T13:23:22.162Z,100656.75
2022-08-05T13:25:59.195Z,100645.88
2022-08-05T13:28:27.464Z,100660.34
2022-08-05T13:30:54.593Z,100654.03
2022-08-05T13:34:23.041Z,100655.72
2022-08-05T13:36:09.656Z,100647.53
2022-08-05T13:38:38.418Z,100655.72
2022-08-05T13:41:10.889Z,100648.59
2022-08-05T13:43:45.305Z,100655.72
2022-08-05T13:47:01.553Z,100641.25
2022-08-05T13:49:11.705Z,100636.63
2022-08-05T13:51:40.900Z,100641.25
2022-08-05T13:54:11.812Z,100642.09
2022-08-05T13:56:45.467Z,100625.72
2022-08-05T13:59:24.418Z,100631.19
2022-08-05T14:01:57.489Z,100624.69
2022-08-05T14:04:50.102Z,100612.94
2022-08-05T14:07:59.774Z,100610.22
2022-08-05T14:10:28.668Z,100610.88
2022-08-05T14:12:56.982Z,100607.25
2022-08-05T14:16:08.113Z,100604.53
2022-08-05T14:18:17.601Z,100605.41
2022-08-05T14:20:47.267Z,100601.81
2022-08-05T14:23:24.019Z,100601.81
2022-08-05T14:25:54.493Z,100595.34
2022-08-05T14:28:26.748Z,100598.06
2022-08-05T14:30:54.765Z,100589.88
2022-08-05T14:33:22.716Z,100595.34
2022-08-05T14:35:51.902Z,100588.00
2022-08-05T14:38:33.275Z,100584.44
2022-08-05T14:41:05.705Z,100573.53
2022-08-05T14:43:57.753Z,100576.25
2022-08-05T14:46:23.299Z,100576.25
2022-08-05T14:48:57.244Z,100573.31
2022-08-05T14:51:24.311Z,100564.28
2022-08-05T14:54:25.940Z,100576.03
2022-08-05T14:56:44.349Z,100576.25
2022-08-05T14:59:14.507Z,100569.75
2022-08-05T15:01:49.164Z,100567.03
2022-08-05T15:04:20.763Z,100568.69
2022-08-05T15:06:50.425Z,100561.56
2022-08-05T15:09:54.234Z,100565.13
2022-08-05T15:12:05.794Z,100552.34
2022-08-05T15:14:34.821Z,100550.66
2022-08-05T15:17:44.582Z,100551.28
2022-08-05T15:19:57.545Z,100548.78
2022-08-05T15:22:27.204Z,100552.34
2022-08-05T15:24:55.838Z,100538.72
2022-08-05T15:27:25.543Z,100540.59
2022-08-05T15:29:56.639Z,100539.53
2022-08-05T15:32:27.405Z,100529.47
2022-08-05T15:34:56.957Z,100526.75
2022-08-05T15:38:21.123Z,100526.75
2022-08-05T15:41:00.213Z,100523.00
2022-08-05T15:43:09.106Z,100528.44
2022-08-05T15:45:43.145Z,100530.34
2022-08-05T15:48:14.432Z,100515.84
2022-08-05T15:50:43.681Z,100525.72
2022-08-05T15:53:13.106Z,100522.16
2022-08-05T15:56:03.462Z,100522.16
2022-08-05T15:58:35.801Z,100520.06
2022-08-05T16:01:17.422Z,100518.38
2022-08-05T16:03:50.464Z,100501.19
2022-08-05T16:06:20.306Z,100513.78
2022-08-05T16:08:50.371Z,100508.31
2022-08-05T16:11:21.055Z,100506.44
2022-08-05T16:14:08.991Z,100500.13
2022-08-05T16:16:36.422Z,100505.59
2022-08-05T16:19:03.896Z,100502.88
2022-08-05T16:21:58.741Z,100505.59
2022-08-05T16:24:41.922Z,100505.59
2022-08-05T16:27:07.309Z,100508.09
2022-08-05T16:29:45.519Z,100508.09
2022-08-05T16:32:17.688Z,100508.94
2022-08-05T16:34:55.556Z,100512.72
2022-08-05T16:38:02.321Z,100511.66
2022-08-05T16:40:24.943Z,100522.56
2022-08-05T16:42:53.872Z,100523.63
2022-08-05T16:46:05.304Z,100522.56
2022-08-05T16:48:08.075Z,100524.47
2022-08-05T16:50:37.711Z,100526.34
2022-08-05T16:53:12.025Z,100525.28
2022-08-05T16:55:47.227Z,100527.19
2022-08-05T16:58:14.650Z,100525.28
2022-08-05T17:00:48.139Z,100527.00
2022-08-05T17:03:20.452Z,100531.63
2022-08-05T17:05:54.047Z,100526.16
2022-08-05T17:08:36.239Z,100516.94
2022-08-05T17:11:16.817Z,100524.28
2022-08-05T17:13:45.065Z,100527.00
2022-08-05T17:16:29.770Z,100522.38
2022-08-05T17:18:59.467Z,100528.88
2022-08-05T17:21:35.283Z,100530.56
2022-08-05T17:24:14.401Z,100531.41
2022-08-05T17:26:52.507Z,100528.66
2022-08-05T17:29:22.578Z,100534.13
2022-08-05T17:31:59.968Z,100534.97
2022-08-05T17:34:30.199Z,100534.13
2022-08-05T17:36:59.532Z,100534.13
2022-08-05T17:39:34.413Z,100532.22
2022-08-05T17:42:17.809Z,100528.66
2022-08-05T17:44:50.410Z,100535.81
2022-08-05T17:47:22.170Z,100543.13
2022-08-05T17:49:59.556Z,100537.69
2022-08-05T17:52:34.789Z,100543.97
2022-08-05T17:55:20.680Z,100543.13
2022-08-05T17:57:50.041Z,100548.38
2022-08-05T18:00:17.584Z,100542.91
2022-08-05T18:02:47.299Z,100545.66
2022-08-05T18:05:16.744Z,100548.38
2022-08-05T18:07:44.691Z,100541.06
2022-08-05T18:10:12.049Z,100554.69
2022-08-05T18:12:51.123Z,100551.97
2022-08-05T18:15:18.438Z,100551.97
2022-08-05T18:18:01.311Z,100552.81
2022-08-05T18:20:34.483Z,100557.22
2022-08-05T18:23:08.974Z,100558.25
2022-08-05T18:25:39.192Z,100557.44
2022-08-05T18:28:07.173Z,100563.72
2022-08-05T18:30:39.101Z,100565.38
2022-08-05T18:33:08.554Z,100573.78
2022-08-05T18:36:01.126Z,100574.63
2022-08-05T18:38:29.083Z,100576.31
2022-08-05T18:41:54.320Z,100581.75
2022-08-05T18:43:48.435Z,100583.63
2022-08-05T18:46:19.924Z,100591.81
2022-08-05T18:48:53.759Z,100591.81
2022-08-05T18:52:02.691Z,100592.66
2022-08-05T18:54:28.330Z,100595.38
2022-08-05T18:57:01.721Z,100593.50
2022-08-05T18:59:43.960Z,100604.41
2022-08-05T19:02:36.491Z,100610.69
2022-08-05T19:06:05.289Z,100627.06
2022-08-05T19:07:56.163Z,100620.75
2022-08-05T19:10:26.471Z,100628.72
2022-08-05T19:12:56.760Z,100635.25
2022-08-05T19:15:56.731Z,100640.69
2022-08-05T19:18:20.591Z,100639.63
2022-08-05T19:20:55.883Z,100646.97
2022-08-05T19:24:05.570Z,100650.53
2022-08-05T19:26:11.389Z,100639.84
2022-08-05T19:28:42.012Z,100650.53
2022-08-05T19:31:13.239Z,100652.44
2022-08-05T19:33:47.951Z,100657.72
2022-08-05T19:36:24.204Z,100654.16
2022-08-05T19:38:51.555Z,100658.53
2022-08-05T19:41:22.163Z,100661.44
2022-08-05T19:44:12.794Z,100663.16
2022-08-05T19:46:41.612Z,100674.06
2022-08-05T19:49:12.451Z,100673.22
2022-08-05T19:52:05.889Z,100665.88
2022-08-05T19:54:32.907Z,100669.44
2022-08-05T19:57:06.479Z,100673.22
2022-08-05T20:00:01.673Z,100674.06
2022-08-05T20:02:26.244Z,100674.06
2022-08-05T20:04:59.178Z,100679.53
2022-08-05T20:07:46.224Z,100676.59
2022-08-05T20:10:14.978Z,100679.53
2022-08-05T20:12:47.718Z,100681.19
2022-08-05T20:15:23.374Z,100686.66
2022-08-05T20:18:10.689Z,100692.09
2022-08-05T20:20:51.516Z,100691.06
2022-08-05T20:23:22.627Z,100692.94
2022-08-05T20:25:52.218Z,100689.38
2022-08-05T20:28:19.544Z,100685.81
2022-08-05T20:30:46.755Z,100691.06
2022-08-05T20:33:16.467Z,100686.66
2022-08-05T20:35:45.501Z,100695.69
2022-08-05T20:38:14.428Z,100693.78
2022-08-05T20:40:50.545Z,100698.22
2022-08-05T20:43:17.745Z,100693.78
2022-08-05T20:46:06.802Z,100700.06
2022-08-05T20:48:36.095Z,100702.81
2022-08-05T20:51:08.339Z,100698.41
2022-08-05T20:53:37.153Z,100697.56
2022-08-05T20:56:09.680Z,100697.34
2022-08-05T20:58:37.173Z,100691.91
2022-08-05T21:01:04.794Z,100693.59
2022-08-05T21:03:34.516Z,100694.63
2022-08-05T21:06:02.144Z,100706.41
2022-08-05T21:08:41.845Z,100693.78
2022-08-05T21:11:11.788Z,100701.78
2022-08-05T21:13:48.088Z,100707.25
2022-08-05T21:16:29.497Z,100711.84
2022-08-05T21:19:01.737Z,100722.75
2022-08-05T21:21:39.352Z,100718.16
2022-08-05T21:24:12.624Z,100721.91
2022-08-05T21:26:41.406Z,100728.22
2022-08-05T21:29:12.515Z,100728.22
2022-08-05T21:31:43.708Z,100725.50
2022-08-05T21:34:11.453Z,100729.06
2022-08-05T21:36:39.486Z,100724.63
2022-08-05T21:39:10.145Z,100724.63
2022-08-05T21:41:41.882Z,100730.06
2022-08-05T21:44:27.043Z,100730.06
2022-08-05T21:46:58.519Z,100722.75
2022-08-05T21:49:59.397Z,100728.22
2022-08-05T21:52:27.549Z,100730.94
2022-08-05T21:55:06.818Z,100729.91
2022-08-05T21:57:35.613Z,100732.63
2022-08-05T22:00:05.950Z,100728.22
2022-08-05T22:02:39.940Z,100729.91
2022-08-05T22:05:10.732Z,100729.06
2022-08-05T22:07:54.258Z,100728.22
2022-08-05T22:10:27.139Z,100733.47
2022-08-05T22:12:57.158Z,100730.72
2022-08-05T22:16:02.036Z,100734.50
2022-08-05T22:18:14.339Z,100742.69
2022-08-05T22:20:41.880Z,100739.13
2022-08-05T22:24:02.336Z,100741.63
2022-08-05T22:26:35.770Z,100746.25
2022-08-05T22:29:03.411Z,100738.06
2022-08-05T22:31:30.929Z,100738.91
2022-08-05T22:34:12.942Z,100742.69
2022-08-05T22:36:48.162Z,100740.81
2022-08-05T22:39:21.591Z,100740.81
2022-08-05T22:42:11.436Z,100738.91
2022-08-05T22:44:35.818Z,100738.06
2022-08-05T22:47:05.063Z,100741.63
2022-08-05T22:50:21.779Z,100738.91
2022-08-05T22:52:30.273Z,100730.72
2022-08-05T22:55:01.923Z,100737.03
2022-08-05T22:57:36.150Z,100726.13
2022-08-05T23:00:05.489Z,100726.13
2022-08-05T23:02:39.796Z,100723.38
2022-08-05T23:05:07.423Z,100731.56
2022-08-05T23:07:45.079Z,100728.00
2022-08-05T23:10:16.447Z,100729.91
2022-08-05T23:12:51.156Z,100725.28
2022-08-05T23:15:21.309Z,100728.00
2022-08-05T23:17:59.706Z,100737.88
2022-08-05T23:20:27.360Z,100735.34
2022-08-05T23:22:56.542Z,100737.03
2022-08-05T23:25:53.687Z,100740.59
2022-08-05T23:28:13.250Z,100741.63
2022-08-05T23:30:52.787Z,100738.91
2022-08-05T23:33:25.574Z,100743.31
2022-08-05T23:36:06.503Z,100746.88
2022-08-05T23:38:37.613Z,100740.59
2022-08-05T23:41:04.689Z,100744.16
2022-08-05T23:43:37.417Z,100743.31
2022-08-05T23:46:21.997Z,100737.88
2022-08-05T23:49:00.720Z,100745.22
2022-08-05T23:51:55.074Z,100760.53
2022-08-05T23:54:29.961Z,100751.50
2022-08-05T23:57:03.890Z,100752.34
